San Pierre, Indiana
Current Conditions -  °F | °C
As of 4:35 PM on Tuesday 21 Oct 2014 (Local Time) from KOXI Reporting Station
Overcast Overcast  
Wind Chill: 45°   Ceiling: 3100
Heat Index: 49°   Visibility: 10mi
Dew Point: 39°   Wind: 12mph
Humidity: 68%   Direction: 10°N
Pressure: 30.16"   Gusts: NA
Location:  41.2°N, 86.89°W
Report Text: KOXI 212135Z AUTO 01010KT 10SM OVC031 10/04 A3016 RMK AO1 T00970040
Loading
Personal Weather Stations






























Interactive Weather Map
Tropical Storm Tracking
New forecast layout! Learn more

10-Day Weather Forecast

Advertisements
Track Severe Weather on mobile